首页
METAR-TAF:

METAR-TAF

机场 :

羅蘭加洛斯機場

圣但尼, 留尼汪岛

纬度: 20-53S, 经度: 055-31E, 海拔: 21米

当前天气观测

该预报发布于34分钟前的08:30 UTC
风速9节,风向东转东北
温度 31°C
湿度 71%
气压 1013 hPa
能见度10公里或以上
1500米以下无云,无积雨云

METAR: FMEE 190830Z AUTO 07009KT CAVOK 31/25 Q1013 NOSIG

时间: 13:04 (09:04 UTC)

预报

该预报发布于4小时和4分钟前的05:00 UTC
预报有效从19日的 06点(UTC)到 20日的 12点(UTC)
风速10节,风向
能见度10公里或以上
少量云层高于2000英尺
几率 30% :
短暂存在
从 19日的 14点(UTC)到 19日的 18点(UTC)
能見度: 4000
散云层高于2000英尺, 塔状积云.
阵雨
成为
从 19日的 18点(UTC)到 19日的 20点(UTC)
风速10节,风向南转南东

TAF: FMEE 190500Z 1906/2012 09010KT 9999 FEW020 PROB30 TEMPO 1914/1918 4000 SHRA SCT020TCU BECMG 1918/1920 16010KT

超过4000个机场的气象观测和天气预报(METAR&TAF报告)。

可查询的气象台以黄色和红色小点在地图上表示。

将鼠标移到小点上方,可查看气象台名称。

然后点击查看天气观测和预报。

如需切换地图:点击带黑十字的绿色按钮放大地图;点击带横线的绿色按钮缩小地图;或者点击绿色箭头查看邻近地区的地图。


METAR-TAF: